Time;durP1;ratioP1;P1;durP2;ratioP2;P2;SDS_P1;SDS_P2;PMS_P1;PMS_P2;Temp;Humidity;BMP_temperature;BMP_pressure;BME280_temperature;BME280_humidity;BME280_pressure;Samples;Min_cycle;Max_cycle;Signal;HPM_P1;HPM_P2
2024/02/27 00:01:22;;;;;;;;;;;;;;;7.78;60.36;97116.28;5075563;28;20174;-83
2024/02/27 00:03:49;;;;;;;;;;;;;;;7.91;59.87;97119.19;5071438;28;19930;-83
2024/02/27 00:06:19;;;;;;;;;;;;;;;7.87;60.16;97125.19;5096776;28;20352;-82
2024/02/27 00:08:47;;;;;;;;;;;;;;;7.84;59.77;97125.06;5095218;28;19924;-84
2024/02/27 00:11:15;;;;;;;;;;;;;;;7.85;60.11;97118.53;5074469;28;19938;-83
2024/02/27 00:13:42;;;;;;;;;;;;;;;7.94;59.96;97113.16;5081657;28;19924;-82
2024/02/27 00:16:10;;;;;;;;;;;;;;;7.93;59.63;97119.66;5078282;28;19977;-81
2024/02/27 00:18:38;;;;;;;;;;;;;;;7.84;59.71;97119.63;5092852;28;19924;-83
2024/02/27 00:21:06;;;;;;;;;;;;;;;7.69;60.46;97120.06;5076050;28;19931;-83
2024/02/27 00:23:36;;;;;;;;;;;;;;;7.58;60.77;97114.13;5089562;28;19935;-83
2024/02/27 00:26:03;;;;;;;;;;;;;;;7.61;60.57;97124.28;5091800;28;19951;-83
2024/02/27 00:28:33;;;;;;;;;;;;;;;7.69;60.51;97128.97;5088483;28;19932;-82
2024/02/27 00:31:01;;;;;;;;;;;;;;;7.75;60.65;97140.44;5073562;28;19931;-82
2024/02/27 00:33:29;;;;;;;;;;;;;;;7.84;60.46;97141.28;5090652;28;19924;-83
2024/02/27 00:35:56;;;;;;;;;;;;;;;7.82;60.29;97155.09;5081825;28;19991;-82
2024/02/27 00:38:24;;;;;;;;;;;;;;;7.65;60.77;97146.91;5072484;28;20032;-83
2024/02/27 00:40:53;;;;;;;;;;;;;;;7.63;60.48;97140.22;5101939;28;19923;-83
2024/02/27 00:43:22;;;;;;;;;;;;;;;7.54;61.37;97148.28;5094516;28;19926;-83
2024/02/27 00:45:50;;;;;;;;;;;;;;;7.57;60.91;97158.47;5093091;28;19963;-83
2024/02/27 00:48:17;;;;;;;;;;;;;;;7.69;61.09;97156.00;5075311;28;19971;-83
2024/02/27 00:50:47;;;;;;;;;;;;;;;7.72;60.63;97139.13;5073679;28;19924;-82
2024/02/27 00:53:16;;;;;;;;;;;;;;;7.70;60.64;97146.78;5076423;28;20337;-84
2024/02/27 00:59:53;;;;;;;;;;;;;;;7.60;61.39;97168.66;5083021;28;20033;-87
2024/02/27 01:02:21;;;;;;;;;;;;;;;7.50;61.33;97174.31;5076173;28;19963;-87
2024/02/27 01:04:49;;;;;;;;;;;;;;;7.59;61.29;97177.88;5085380;28;19930;-86
2024/02/27 01:07:17;;;;;;;;;;;;;;;7.55;61.80;97176.91;5081908;28;19924;-87
2024/02/27 01:09:45;;;;;;;;;;;;;;;7.56;61.05;97167.66;5086143;28;19973;-87
2024/02/27 01:12:13;;;;;;;;;;;;;;;7.50;61.37;97167.00;5097093;28;19924;-86
2024/02/27 01:14:41;;;;;;;;;;;;;;;7.48;61.87;97158.44;5101653;28;19924;-87
2024/02/27 01:17:13;;;;;;;;;;;;;;;7.48;61.84;97155.72;5069655;28;19970;-86
2024/02/27 01:19:46;;;;;;;;;;;;;;;7.37;62.05;97161.69;5092252;28;19931;-86
2024/02/27 01:22:23;;;;;;;;;;;;;;;7.33;61.72;97175.81;5077119;28;19973;-86
2024/02/27 01:24:51;;;;;;;;;;;;;;;7.13;62.85;97170.91;5064048;28;19932;-87
2024/02/27 01:27:19;;;;;;;;;;;;;;;7.28;62.65;97173.22;5081769;28;19931;-86
2024/02/27 01:29:47;;;;;;;;;;;;;;;7.39;62.36;97175.69;5088668;28;20428;-87
2024/02/27 01:32:16;;;;;;;;;;;;;;;7.48;61.70;97176.53;5098692;28;20397;-87
2024/02/27 01:34:45;;;;;;;;;;;;;;;7.47;61.94;97186.56;5096492;28;19928;-87
2024/02/27 01:37:13;;;;;;;;;;;;;;;7.34;62.91;97188.22;5097874;28;19924;-86
2024/02/27 01:39:41;;;;;;;;;;;;;;;7.34;62.37;97184.72;5097252;28;19955;-87
2024/02/27 01:42:12;;;;;;;;;;;;;;;7.49;62.35;97178.94;5079844;28;19931;-86
2024/02/27 01:44:41;;;;;;;;;;;;;;;7.49;62.10;97178.13;5097726;28;19924;-86
2024/02/27 01:47:09;;;;;;;;;;;;;;;7.51;62.14;97184.84;5079699;28;19924;-87
2024/02/27 01:49:41;;;;;;;;;;;;;;;7.51;62.29;97192.13;5079512;28;20323;-87
2024/02/27 01:52:09;;;;;;;;;;;;;;;7.46;62.46;97192.28;5095556;28;19927;-87
2024/02/27 01:54:37;;;;;;;;;;;;;;;7.37;62.76;97188.72;5088516;28;19946;-87
2024/02/27 01:57:05;;;;;;;;;;;;;;;7.46;62.29;97192.28;5097440;28;20011;-87
2024/02/27 01:59:33;;;;;;;;;;;;;;;7.40;62.83;97185.38;5069461;28;20334;-86
2024/02/27 02:02:01;;;;;;;;;;;;;;;7.39;62.74;97189.19;5092171;28;19924;-85
2024/02/27 02:04:29;;;;;;;;;;;;;;;7.30;63.05;97187.25;5078887;28;19977;-85
2024/02/27 02:07:00;;;;;;;;;;;;;;;7.27;63.20;97184.34;5103897;28;19924;-84
2024/02/27 02:09:27;;;;;;;;;;;;;;;7.34;62.79;97185.50;5092174;28;19932;-85
2024/02/27 02:11:58;;;;;;;;;;;;;;;7.42;62.55;97188.59;5092203;28;20284;-85
2024/02/27 02:14:26;;;;;;;;;;;;;;;7.50;62.11;97195.94;5066431;28;19931;-86
2024/02/27 02:16:54;;;;;;;;;;;;;;;7.44;62.44;97197.19;5072641;28;19924;-86
2024/02/27 02:19:25;;;;;;;;;;;;;;;7.33;63.03;97194.72;5071109;28;19931;-86
2024/02/27 02:21:56;;;;;;;;;;;;;;;7.34;62.76;97190.91;5093820;28;19939;-85
2024/02/27 02:24:24;;;;;;;;;;;;;;;7.47;62.39;97188.47;5080464;28;20043;-84
2024/02/27 02:26:52;;;;;;;;;;;;;;;7.48;62.38;97187.34;5075959;28;19969;-87
2024/02/27 02:29:20;;;;;;;;;;;;;;;7.47;62.46;97175.75;5089682;28;20007;-86
2024/02/27 02:31:48;;;;;;;;;;;;;;;7.27;62.52;97173.53;5075543;28;19967;-86
2024/02/27 02:34:16;;;;;;;;;;;;;;;7.35;62.27;97168.22;5072936;28;19981;-85
2024/02/27 02:36:44;;;;;;;;;;;;;;;7.24;62.44;97150.63;5066616;28;19924;-86
2024/02/27 02:39:13;;;;;;;;;;;;;;;7.37;62.18;97143.56;5072587;28;19924;-85
2024/02/27 02:41:41;;;;;;;;;;;;;;;7.37;62.33;97142.78;5093243;28;20417;-85
2024/02/27 02:44:10;;;;;;;;;;;;;;;7.23;62.65;97132.03;5075772;28;19952;-84
2024/02/27 02:46:38;;;;;;;;;;;;;;;7.21;62.70;97129.66;5074634;28;19930;-85
2024/02/27 02:49:06;;;;;;;;;;;;;;;7.10;62.86;97139.13;5077556;28;19973;-85
2024/02/27 02:51:34;;;;;;;;;;;;;;;7.19;62.94;97137.28;5076078;28;20350;-85
2024/02/27 02:54:02;;;;;;;;;;;;;;;7.17;62.87;97139.47;5093743;28;20295;-86
2024/02/27 02:56:31;;;;;;;;;;;;;;;7.19;62.68;97137.28;5102864;28;20022;-87
2024/02/27 02:59:00;;;;;;;;;;;;;;;7.27;62.85;97147.31;5094428;28;19924;-85
2024/02/27 03:04:23;;;;;;;;;;;;;;;7.31;62.61;97129.41;5102065;28;19924;-86
2024/02/27 03:06:54;;;;;;;;;;;;;;;7.28;62.32;97135.41;5082164;28;19924;-86
2024/02/27 03:09:23;;;;;;;;;;;;;;;7.40;62.67;97136.75;5075969;28;19999;-86
2024/02/27 03:11:52;;;;;;;;;;;;;;;7.41;62.09;97138.38;5074410;28;20556;-81
2024/02/27 03:14:20;;;;;;;;;;;;;;;7.35;62.31;97135.00;5093145;28;20529;-83
2024/02/27 03:16:47;;;;;;;;;;;;;;;7.39;62.07;97143.25;5074108;28;19932;-81
2024/02/27 03:19:15;;;;;;;;;;;;;;;7.33;62.60;97143.38;5092299;28;20395;-83
2024/02/27 03:21:43;;;;;;;;;;;;;;;7.43;62.34;97141.53;5085561;28;19924;-81
2024/02/27 03:24:11;;;;;;;;;;;;;;;7.29;62.73;97145.09;5072971;28;19924;-82
2024/02/27 03:26:42;;;;;;;;;;;;;;;7.35;62.49;97149.28;5074649;28;20399;-82
2024/02/27 03:29:11;;;;;;;;;;;;;;;7.49;62.44;97143.00;5084937;28;19924;-83
2024/02/27 03:31:39;;;;;;;;;;;;;;;7.45;62.38;97134.72;5102006;28;20306;-80
2024/02/27 03:34:08;;;;;;;;;;;;;;;7.34;62.36;97144.19;5074155;28;20261;-80
2024/02/27 03:36:39;;;;;;;;;;;;;;;7.46;62.03;97146.34;5091987;28;20563;-81
2024/02/27 03:39:07;;;;;;;;;;;;;;;7.46;62.51;97157.16;5092845;28;19993;-80
2024/02/27 03:41:35;;;;;;;;;;;;;;;7.52;62.01;97161.31;5093931;28;19928;-80
2024/02/27 03:44:03;;;;;;;;;;;;;;;7.58;61.88;97160.06;5095076;28;19941;-82
2024/02/27 03:46:32;;;;;;;;;;;;;;;7.63;61.66;97154.53;5098983;28;20018;-82
2024/02/27 03:49:25;;;;;;;;;;;;;;;7.61;61.59;97167.53;5093628;28;20015;-82
2024/02/27 03:51:53;;;;;;;;;;;;;;;7.64;61.61;97175.03;5080012;28;20418;-81
2024/02/27 03:54:22;;;;;;;;;;;;;;;7.65;62.08;97182.03;5079168;28;19931;-81
2024/02/27 03:56:51;;;;;;;;;;;;;;;7.63;61.67;97195.09;5092991;28;19963;-81
2024/02/27 03:59:19;;;;;;;;;;;;;;;7.72;61.58;97195.13;5092733;28;19977;-82
2024/02/27 04:01:50;;;;;;;;;;;;;;;7.52;61.91;97199.16;5091751;28;19928;-79
2024/02/27 04:04:18;;;;;;;;;;;;;;;7.57;62.00;97199.03;5086005;28;19931;-82
2024/02/27 04:06:46;;;;;;;;;;;;;;;7.62;61.67;97212.41;5078577;28;19924;-81
2024/02/27 04:09:14;;;;;;;;;;;;;;;7.65;61.93;97203.66;5091938;28;20311;-81
2024/02/27 04:11:43;;;;;;;;;;;;;;;7.73;61.32;97205.66;5074462;28;20027;-81
2024/02/27 04:14:10;;;;;;;;;;;;;;;7.68;61.58;97205.78;5085768;28;19931;-80
2024/02/27 04:16:39;;;;;;;;;;;;;;;7.59;62.28;97210.31;5061227;28;19924;-81
2024/02/27 04:19:08;;;;;;;;;;;;;;;7.68;61.86;97213.09;5092066;28;19954;-81
2024/02/27 04:21:36;;;;;;;;;;;;;;;7.60;62.12;97220.03;5093197;28;19924;-80
2024/02/27 04:24:05;;;;;;;;;;;;;;;7.61;62.75;97222.41;5092562;28;20489;-82
2024/02/27 04:26:33;;;;;;;;;;;;;;;7.55;62.71;97236.38;5074165;28;19931;-82
2024/02/27 04:29:00;;;;;;;;;;;;;;;7.66;62.43;97235.00;5089057;28;19977;-81
2024/02/27 04:31:28;;;;;;;;;;;;;;;7.67;62.36;97244.72;5090434;28;19960;-82
2024/02/27 04:33:56;;;;;;;;;;;;;;;7.65;62.51;97241.53;5067691;28;19924;-80
2024/02/27 04:36:25;;;;;;;;;;;;;;;7.70;62.54;97243.31;5080275;28;19930;-82
2024/02/27 04:38:53;;;;;;;;;;;;;;;7.75;62.19;97252.09;5082333;28;20390;-82
2024/02/27 04:41:21;;;;;;;;;;;;;;;7.68;63.42;97240.91;5087524;28;19928;-81
2024/02/27 04:43:50;;;;;;;;;;;;;;;7.60;62.75;97244.34;5070771;28;19931;-81
2024/02/27 04:46:18;;;;;;;;;;;;;;;7.56;62.84;97251.47;5072543;28;19928;-82
2024/02/27 04:48:46;;;;;;;;;;;;;;;7.62;62.80;97252.97;5091593;28;19923;-82
2024/02/27 04:51:14;;;;;;;;;;;;;;;7.71;62.65;97250.31;5077110;28;20014;-82
2024/02/27 04:53:43;;;;;;;;;;;;;;;7.59;63.43;97261.69;5076459;28;19930;-81
2024/02/27 04:56:12;;;;;;;;;;;;;;;7.59;63.04;97253.56;5075715;28;19924;-81
2024/02/27 04:58:40;;;;;;;;;;;;;;;7.55;63.45;97257.97;5073723;28;19973;-81
2024/02/27 05:01:10;;;;;;;;;;;;;;;7.62;62.98;97258.38;5075994;28;19924;-82
2024/02/27 05:03:38;;;;;;;;;;;;;;;7.69;62.76;97264.13;5087398;28;19924;-82
2024/02/27 05:06:06;;;;;;;;;;;;;;;7.66;62.93;97272.84;5090428;28;20312;-80
2024/02/27 05:08:34;;;;;;;;;;;;;;;7.72;63.24;97270.81;5089091;28;19924;-81
2024/02/27 05:11:03;;;;;;;;;;;;;;;7.83;62.18;97264.06;5075669;28;19924;-81
2024/02/27 05:13:31;;;;;;;;;;;;;;;7.92;61.80;97266.81;5096361;28;19932;-81
2024/02/27 05:15:59;;;;;;;;;;;;;;;7.96;61.54;97262.38;5056158;28;19999;-82
2024/02/27 05:18:28;;;;;;;;;;;;;;;8.17;61.40;97268.88;5091466;28;19960;-82
2024/02/27 05:20:57;;;;;;;;;;;;;;;8.21;61.02;97266.34;5069667;28;19924;-92
2024/02/27 05:23:25;;;;;;;;;;;;;;;8.16;61.08;97275.41;5072801;28;20037;-79
2024/02/27 05:25:53;;;;;;;;;;;;;;;8.26;60.87;97272.41;5094136;28;19931;-78
2024/02/27 05:28:22;;;;;;;;;;;;;;;8.36;60.63;97274.06;5083399;28;19970;-82
2024/02/27 05:30:49;;;;;;;;;;;;;;;8.43;60.89;97282.56;5101749;28;20322;-81
2024/02/27 05:33:17;;;;;;;;;;;;;;;8.38;60.78;97275.38;5076086;28;19932;-77
2024/02/27 05:35:45;;;;;;;;;;;;;;;8.37;60.84;97273.78;5090286;28;19928;-77
2024/02/27 05:38:13;;;;;;;;;;;;;;;8.36;60.81;97284.88;5084070;28;20015;-87
2024/02/27 05:40:41;;;;;;;;;;;;;;;8.41;60.42;97284.75;5086966;28;19924;-77
2024/02/27 05:43:09;;;;;;;;;;;;;;;8.44;60.67;97284.13;5091649;28;20341;-76
2024/02/27 05:45:38;;;;;;;;;;;;;;;8.37;60.77;97286.50;5091219;28;19981;-80
2024/02/27 05:48:06;;;;;;;;;;;;;;;8.40;60.44;97286.66;5092268;28;19924;-76
2024/02/27 05:50:37;;;;;;;;;;;;;;;8.51;60.43;97284.47;5085630;28;20358;-75
2024/02/27 05:53:05;;;;;;;;;;;;;;;8.64;60.01;97288.19;5092845;28;19924;-76
2024/02/27 05:55:34;;;;;;;;;;;;;;;8.61;60.07;97288.81;5095483;28;19928;-81
2024/02/27 05:58:02;;;;;;;;;;;;;;;8.67;59.94;97298.38;5088725;28;19924;-80
2024/02/27 06:00:29;;;;;;;;;;;;;;;8.50;60.44;97292.91;5095063;28;19931;-82
2024/02/27 06:02:59;;;;;;;;;;;;;;;8.47;60.49;97293.53;5106004;28;19973;-76
2024/02/27 06:05:27;;;;;;;;;;;;;;;8.35;60.78;97300.31;5102134;28;19924;-81
2024/02/27 06:07:55;;;;;;;;;;;;;;;8.55;60.41;97306.31;5087871;28;19928;-80
2024/02/27 06:10:22;;;;;;;;;;;;;;;8.35;60.98;97313.84;5089601;28;19925;-81
2024/02/27 06:12:50;;;;;;;;;;;;;;;8.30;61.09;97322.09;5087816;28;19924;-88
2024/02/27 06:15:18;;;;;;;;;;;;;;;8.28;61.00;97329.72;5089676;28;20244;-81
2024/02/27 06:17:46;;;;;;;;;;;;;;;8.23;61.02;97343.38;5092127;28;19946;-83
2024/02/27 06:22:56;;;;;;;;;;;;;;;8.10;61.69;97346.97;5069405;28;20384;-85
2024/02/27 06:25:24;;;;;;;;;;;;;;;8.21;61.33;97350.22;5074382;28;19924;-82
2024/02/27 06:27:52;;;;;;;;;;;;;;;8.20;61.44;97354.03;5084855;28;19935;-81
2024/02/27 06:30:20;;;;;;;;;;;;;;;8.22;61.26;97347.22;5087073;28;19931;-80
2024/02/27 06:32:48;;;;;;;;;;;;;;;8.26;61.16;97364.44;5088042;28;19923;-76
2024/02/27 06:35:17;;;;;;;;;;;;;;;8.45;60.85;97363.44;5091682;28;19928;-92
2024/02/27 06:37:45;;;;;;;;;;;;;;;8.50;60.34;97368.72;5076145;28;19925;-79
2024/02/27 06:40:13;;;;;;;;;;;;;;;8.57;60.62;97380.69;5072797;28;19931;-81
2024/02/27 06:42:41;;;;;;;;;;;;;;;8.54;60.76;97377.81;5071922;28;19943;-78
2024/02/27 06:45:09;;;;;;;;;;;;;;;8.49;60.51;97386.88;5087430;28;20352;-79
2024/02/27 06:47:37;;;;;;;;;;;;;;;8.64;60.51;97385.69;5089198;28;19947;-78
2024/02/27 06:50:07;;;;;;;;;;;;;;;8.62;60.26;97393.31;5091760;28;19975;-78
2024/02/27 06:52:36;;;;;;;;;;;;;;;8.74;60.07;97395.44;5091853;28;19969;-79
2024/02/27 06:55:05;;;;;;;;;;;;;;;8.63;60.35;97398.44;5073438;28;19931;-78
2024/02/27 06:57:33;;;;;;;;;;;;;;;8.75;60.44;97403.25;5086780;28;19931;-78
2024/02/27 07:00:00;;;;;;;;;;;;;;;8.66;60.64;97402.41;5091803;28;19925;-78
2024/02/27 07:02:29;;;;;;;;;;;;;;;8.72;60.58;97403.06;5089065;28;19971;-78
2024/02/27 07:04:56;;;;;;;;;;;;;;;8.61;61.07;97405.25;5091551;28;19924;-78
2024/02/27 07:07:24;;;;;;;;;;;;;;;8.81;60.24;97410.13;5081194;28;20421;-78
2024/02/27 07:09:54;;;;;;;;;;;;;;;8.79;60.16;97415.06;5073510;28;19982;-79
2024/02/27 07:12:21;;;;;;;;;;;;;;;8.85;60.27;97419.25;5082935;28;19924;-78
2024/02/27 07:14:49;;;;;;;;;;;;;;;8.83;60.64;97418.72;5073464;28;19959;-78
2024/02/27 07:17:18;;;;;;;;;;;;;;;8.96;60.43;97427.09;5073140;28;19931;-78
2024/02/27 07:19:46;;;;;;;;;;;;;;;8.90;60.27;97421.81;5080018;28;20443;-78
2024/02/27 07:22:14;;;;;;;;;;;;;;;8.76;60.76;97426.50;5089554;28;20368;-78
2024/02/27 07:24:41;;;;;;;;;;;;;;;8.84;60.29;97424.94;5080131;28;19924;-78
2024/02/27 07:27:11;;;;;;;;;;;;;;;9.05;59.96;97428.72;5072909;28;19925;-78
2024/02/27 07:29:39;;;;;;;;;;;;;;;9.01;60.44;97424.25;5090128;28;19924;-77
2024/02/27 07:32:07;;;;;;;;;;;;;;;8.89;60.56;97420.22;5091214;28;20522;-78
2024/02/27 07:34:35;;;;;;;;;;;;;;;8.90;60.74;97421.81;5082797;28;19970;-78
2024/02/27 07:37:03;;;;;;;;;;;;;;;8.86;60.84;97423.53;5077954;28;20353;-79
2024/02/27 07:39:31;;;;;;;;;;;;;;;8.53;61.57;97431.19;5074138;28;19925;-78
2024/02/27 07:41:59;;;;;;;;;;;;;;;8.71;61.05;97428.56;5068234;28;19924;-77
2024/02/27 07:44:28;;;;;;;;;;;;;;;8.74;61.22;97427.94;5091158;28;19924;-78
2024/02/27 07:46:56;;;;;;;;;;;;;;;8.75;61.08;97424.13;5073951;28;20422;-78
2024/02/27 07:49:24;;;;;;;;;;;;;;;8.82;60.72;97425.25;5089927;28;19954;-78
2024/02/27 07:51:53;;;;;;;;;;;;;;;8.63;61.54;97422.00;5089944;28;20175;-85
2024/02/27 07:54:21;;;;;;;;;;;;;;;8.78;61.44;97427.00;5071489;28;19928;-84
2024/02/27 07:56:49;;;;;;;;;;;;;;;8.90;60.79;97435.34;5080544;28;19931;-84
2024/02/27 07:59:17;;;;;;;;;;;;;;;8.91;60.94;97428.81;5091655;28;19928;-85
2024/02/27 08:01:46;;;;;;;;;;;;;;;9.03;60.52;97427.44;5091910;28;19998;-85
2024/02/27 08:04:14;;;;;;;;;;;;;;;9.10;61.11;97409.59;5095929;28;19924;-85
2024/02/27 08:06:42;;;;;;;;;;;;;;;9.16;60.80;97411.06;5091322;28;19924;-85
2024/02/27 08:09:10;;;;;;;;;;;;;;;9.03;60.33;97405.75;5091265;28;19924;-85
2024/02/27 08:11:38;;;;;;;;;;;;;;;8.95;60.66;97401.09;5067747;28;19968;-85
2024/02/27 08:14:06;;;;;;;;;;;;;;;9.06;61.02;97405.94;5091814;28;19924;-85
2024/02/27 08:16:34;;;;;;;;;;;;;;;9.06;60.57;97397.81;5093413;28;19931;-85
2024/02/27 08:19:05;;;;;;;;;;;;;;;9.16;60.48;97410.25;5110236;28;19924;-85
2024/02/27 08:21:33;;;;;;;;;;;;;;;9.18;60.19;97405.34;5083135;28;20256;-85
2024/02/27 08:24:02;;;;;;;;;;;;;;;9.27;60.14;97408.88;5072856;28;19931;-85
2024/02/27 08:26:30;;;;;;;;;;;;;;;9.22;59.99;97402.81;5071229;28;19924;-85
2024/02/27 08:28:57;;;;;;;;;;;;;;;9.29;59.74;97403.94;5073183;28;19978;-84
2024/02/27 08:31:28;;;;;;;;;;;;;;;9.25;59.75;97399.44;5067315;28;19924;-85
2024/02/27 08:33:56;;;;;;;;;;;;;;;9.17;60.29;97404.53;5064760;28;20528;-85
2024/02/27 08:36:26;;;;;;;;;;;;;;;9.30;59.91;97399.31;5079206;28;20083;-85
2024/02/27 08:38:55;;;;;;;;;;;;;;;9.36;59.75;97396.13;5074556;28;19932;-85
2024/02/27 08:41:22;;;;;;;;;;;;;;;9.43;59.64;97403.81;5082920;28;19977;-85
2024/02/27 08:43:51;;;;;;;;;;;;;;;9.59;59.29;97409.59;5061339;28;19924;-85
2024/02/27 08:46:19;;;;;;;;;;;;;;;9.69;59.04;97410.09;5093852;28;20390;-84
2024/02/27 08:48:49;;;;;;;;;;;;;;;9.65;58.87;97411.03;5092419;28;19967;-84
2024/02/27 08:51:17;;;;;;;;;;;;;;;9.87;58.65;97421.72;5072737;28;19924;-85
2024/02/27 08:53:46;;;;;;;;;;;;;;;9.75;58.65;97410.72;5073129;28;19924;-84
2024/02/27 08:56:14;;;;;;;;;;;;;;;9.82;57.94;97412.97;5089664;28;20009;-84
2024/02/27 08:58:44;;;;;;;;;;;;;;;9.89;57.94;97413.28;5074437;28;19928;-85
2024/02/27 09:01:13;;;;;;;;;;;;;;;9.85;57.94;97413.09;5090340;28;19978;-85
2024/02/27 09:03:41;;;;;;;;;;;;;;;9.89;58.03;97411.34;5093106;28;19928;-84
2024/02/27 09:06:11;;;;;;;;;;;;;;;9.88;57.73;97407.03;5074810;28;19936;-83
2024/02/27 09:08:39;;;;;;;;;;;;;;;10.01;57.46;97404.47;5064151;28;19924;-84
2024/02/27 09:11:08;;;;;;;;;;;;;;;9.94;57.25;97405.75;5072807;28;19924;-84
2024/02/27 09:13:36;;;;;;;;;;;;;;;9.82;57.05;97396.69;5072497;28;20087;-83
2024/02/27 09:16:05;;;;;;;;;;;;;;;9.97;56.82;97398.91;5073096;28;20164;-84
2024/02/27 09:18:35;;;;;;;;;;;;;;;10.02;56.63;97403.38;5089875;28;19977;-84
2024/02/27 09:21:03;;;;;;;;;;;;;;;10.02;56.63;97411.53;5090373;28;19928;-85
2024/02/27 09:23:30;;;;;;;;;;;;;;;10.12;56.63;97409.28;5073007;28;19935;-84
2024/02/27 09:25:58;;;;;;;;;;;;;;;10.06;56.64;97415.19;5075806;28;19928;-84
2024/02/27 09:28:28;;;;;;;;;;;;;;;10.07;56.15;97414.09;5094322;28;20297;-84
2024/02/27 09:30:55;;;;;;;;;;;;;;;10.07;56.37;97414.09;5092686;28;19924;-84
2024/02/27 09:33:23;;;;;;;;;;;;;;;10.13;56.53;97410.09;5092877;28;20019;-84
2024/02/27 09:35:51;;;;;;;;;;;;;;;10.03;56.37;97418.56;5063519;28;19924;-84
2024/02/27 09:38:20;;;;;;;;;;;;;;;10.03;56.30;97423.97;5077329;28;19932;-84
2024/02/27 09:40:50;;;;;;;;;;;;;;;9.92;56.32;97418.88;5069525;28;19924;-84
2024/02/27 09:43:21;;;;;;;;;;;;;;;9.96;56.79;97427.97;5076024;28;19971;-84
2024/02/27 09:45:51;;;;;;;;;;;;;;;10.05;56.62;97430.66;5098475;28;20327;-84
2024/02/27 09:48:18;;;;;;;;;;;;;;;10.08;56.59;97421.09;5075579;28;19925;-84
2024/02/27 09:50:47;;;;;;;;;;;;;;;10.09;56.43;97422.69;5075103;28;19924;-85
2024/02/27 09:53:14;;;;;;;;;;;;;;;9.97;56.97;97426.84;5085795;28;19934;-85
2024/02/27 09:55:42;;;;;;;;;;;;;;;10.03;56.59;97424.78;5093916;28;19924;-85
2024/02/27 09:58:10;;;;;;;;;;;;;;;10.13;56.77;97426.38;5090745;28;20258;-84
2024/02/27 10:00:38;;;;;;;;;;;;;;;10.07;56.83;97433.88;5094185;28;19924;-84
2024/02/27 10:03:07;;;;;;;;;;;;;;;10.15;56.67;97435.00;5085760;28;20323;-83
2024/02/27 10:05:35;;;;;;;;;;;;;;;10.13;56.24;97438.03;5075910;28;19928;-84
2024/02/27 10:08:04;;;;;;;;;;;;;;;9.96;56.65;97438.81;5093983;28;19924;-84
2024/02/27 10:10:32;;;;;;;;;;;;;;;10.10;56.63;97441.38;5093486;28;20342;-84
2024/02/27 10:13:00;;;;;;;;;;;;;;;10.02;56.73;97435.97;5092031;28;19924;-84
2024/02/27 10:15:27;;;;;;;;;;;;;;;10.08;56.71;97434.69;5092834;28;19960;-85
2024/02/27 10:17:56;;;;;;;;;;;;;;;10.09;56.66;97438.97;5077050;28;19928;-84
2024/02/27 10:20:29;;;;;;;;;;;;;;;10.23;56.34;97432.31;5078255;28;19973;-84
2024/02/27 10:22:57;;;;;;;;;;;;;;;10.26;56.60;97440.91;5066372;28;19927;-84
2024/02/27 10:25:27;;;;;;;;;;;;;;;10.34;56.18;97440.94;5095582;28;19931;-84
2024/02/27 10:27:56;;;;;;;;;;;;;;;10.31;55.97;97438.84;5075935;28;19958;-85
2024/02/27 10:30:25;;;;;;;;;;;;;;;10.18;56.38;97442.50;5089084;28;19963;-85
2024/02/27 10:32:54;;;;;;;;;;;;;;;10.29;56.25;97443.81;5086473;28;19946;-84
2024/02/27 10:35:23;;;;;;;;;;;;;;;10.50;55.90;97438.50;5095300;28;19927;-84
2024/02/27 10:37:52;;;;;;;;;;;;;;;10.52;56.02;97440.91;5086425;28;19924;-83
2024/02/27 10:40:20;;;;;;;;;;;;;;;10.65;55.27;97446.16;5091832;28;20022;-83
2024/02/27 10:42:48;;;;;;;;;;;;;;;10.53;55.81;97447.91;5090084;28;19971;-83
2024/02/27 10:45:18;;;;;;;;;;;;;;;10.42;55.79;97455.59;5092316;28;19924;-83
2024/02/27 10:47:49;;;;;;;;;;;;;;;10.53;55.46;97447.91;5092983;28;20284;-84
2024/02/27 10:50:17;;;;;;;;;;;;;;;10.73;55.54;97447.25;5092412;28;19927;-83
2024/02/27 10:52:45;;;;;;;;;;;;;;;10.75;54.92;97451.22;5076541;28;19948;-84
2024/02/27 10:55:14;;;;;;;;;;;;;;;10.84;55.05;97448.50;5092238;28;20076;-84
2024/02/27 10:57:44;;;;;;;;;;;;;;;10.51;55.39;97448.25;5074337;28;19955;-84
2024/02/27 11:00:13;;;;;;;;;;;;;;;10.66;55.23;97455.09;5072837;28;19928;-84
2024/02/27 11:02:43;;;;;;;;;;;;;;;10.77;54.96;97448.19;5092634;28;19947;-83
2024/02/27 11:05:10;;;;;;;;;;;;;;;10.84;54.66;97456.66;5092651;28;19934;-84
2024/02/27 11:07:38;;;;;;;;;;;;;;;10.64;54.79;97449.19;5086859;28;19924;-84
2024/02/27 11:10:07;;;;;;;;;;;;;;;10.72;54.88;97448.38;5093791;28;19928;-84
2024/02/27 11:12:36;;;;;;;;;;;;;;;10.78;54.64;97444.34;5073837;28;19924;-83
2024/02/27 11:15:04;;;;;;;;;;;;;;;10.79;54.58;97445.94;5090754;28;20264;-83
2024/02/27 11:17:33;;;;;;;;;;;;;;;10.59;54.87;97452.84;5073901;28;19938;-84
2024/02/27 11:20:01;;;;;;;;;;;;;;;10.63;54.82;97444.88;5084385;28;19977;-84
2024/02/27 11:22:32;;;;;;;;;;;;;;;10.54;54.77;97442.16;5074413;28;20030;-86
2024/02/27 11:25:00;;;;;;;;;;;;;;;10.74;54.63;97437.97;5093342;28;19924;-86
2024/02/27 11:27:27;;;;;;;;;;;;;;;10.87;54.46;97442.44;5088281;28;19924;-86
2024/02/27 11:29:57;;;;;;;;;;;;;;;10.91;54.42;97439.84;5070245;28;19924;-86
2024/02/27 11:32:25;;;;;;;;;;;;;;;10.80;54.38;97444.81;5058462;28;19971;-86
2024/02/27 11:34:53;;;;;;;;;;;;;;;10.67;54.35;97445.81;5054763;28;20399;-87
2024/02/27 11:37:21;;;;;;;;;;;;;;;10.81;54.23;97448.34;5080454;28;19924;-85
2024/02/27 11:39:50;;;;;;;;;;;;;;;10.75;54.71;97451.22;5074711;28;20372;-85
2024/02/27 11:42:22;;;;;;;;;;;;;;;10.83;54.54;97456.97;5069549;28;20284;-87
2024/02/27 11:45:05;;;;;;;;;;;;;;;10.81;54.51;97459.19;5070582;28;19924;-86
2024/02/27 11:47:34;;;;;;;;;;;;;;;10.77;54.54;97453.63;5060661;28;19938;-86
2024/02/27 11:50:01;;;;;;;;;;;;;;;10.62;54.50;97467.72;5074313;28;20332;-87
2024/02/27 11:52:33;;;;;;;;;;;;;;;10.60;54.70;97461.78;5092921;28;20014;-85
2024/02/27 11:55:08;;;;;;;;;;;;;;;10.71;54.35;97465.81;5071584;28;19924;-87
2024/02/27 11:57:36;;;;;;;;;;;;;;;10.74;54.54;97465.13;5091961;28;20366;-86
2024/02/27 12:00:10;;;;;;;;;;;;;;;10.81;53.81;97460.00;5073900;28;20023;-86
2024/02/27 12:02:38;;;;;;;;;;;;;;;10.83;53.95;97465.94;5092021;28;20371;-86
2024/02/27 12:05:07;;;;;;;;;;;;;;;10.75;54.52;97464.81;5081116;28;19928;-86
2024/02/27 12:07:35;;;;;;;;;;;;;;;10.75;54.91;97461.28;5074090;28;20196;-86
2024/02/27 12:10:08;;;;;;;;;;;;;;;10.90;54.57;97458.06;5073563;28;20327;-86
2024/02/27 12:12:37;;;;;;;;;;;;;;;10.94;53.93;97458.22;5090786;28;19924;-86
2024/02/27 12:15:05;;;;;;;;;;;;;;;10.99;54.21;97467.00;5073014;28;19924;-86
2024/02/27 12:17:36;;;;;;;;;;;;;;;10.99;53.68;97461.56;5062739;28;19932;-86
2024/02/27 12:20:05;;;;;;;;;;;;;;;10.74;53.86;97463.22;5084632;28;20372;-87
2024/02/27 12:22:34;;;;;;;;;;;;;;;10.78;54.09;97459.88;5073416;28;19924;-86
2024/02/27 12:25:03;;;;;;;;;;;;;;;10.91;54.27;97456.13;5073287;28;19924;-86
2024/02/27 12:27:32;;;;;;;;;;;;;;;10.80;54.29;97458.41;5073790;28;19959;-86
2024/02/27 12:30:00;;;;;;;;;;;;;;;10.81;54.11;97451.84;5057326;28;19924;-85
2024/02/27 12:32:28;;;;;;;;;;;;;;;10.90;54.25;97458.06;5068493;28;19928;-79
2024/02/27 12:34:57;;;;;;;;;;;;;;;10.83;54.01;97454.25;5087633;28;20392;-79
2024/02/27 12:37:25;;;;;;;;;;;;;;;10.85;53.66;97443.84;5079397;28;19948;-79
2024/02/27 12:39:52;;;;;;;;;;;;;;;10.91;53.88;97448.78;5090485;28;20170;-80
2024/02/27 12:42:20;;;;;;;;;;;;;;;10.94;53.42;97442.72;5090328;28;20338;-79
2024/02/27 12:44:48;;;;;;;;;;;;;;;10.80;53.90;97444.81;5080763;28;19928;-79
2024/02/27 12:47:16;;;;;;;;;;;;;;;10.82;53.65;97441.81;5074629;28;19931;-79
2024/02/27 12:49:45;;;;;;;;;;;;;;;10.97;53.40;97447.50;5094367;28;19924;-79
2024/02/27 12:52:17;;;;;;;;;;;;;;;10.88;53.76;97444.00;5090724;28;19924;-79
2024/02/27 12:54:46;;;;;;;;;;;;;;;11.03;53.86;97448.13;5090790;28;19950;-79
2024/02/27 12:57:13;;;;;;;;;;;;;;;11.04;53.32;97447.00;5084430;28;19986;-79
2024/02/27 12:59:41;;;;;;;;;;;;;;;11.00;53.23;97446.06;5091385;28;19931;-80
2024/02/27 13:02:10;;;;;;;;;;;;;;;11.12;52.94;97448.06;5094071;28;19924;-79
2024/02/27 13:04:37;;;;;;;;;;;;;;;11.10;52.81;97439.47;5085864;28;19924;-79
2024/02/27 13:07:08;;;;;;;;;;;;;;;10.93;53.14;97441.13;5069908;28;20209;-79
2024/02/27 13:09:38;;;;;;;;;;;;;;;10.99;53.38;97439.03;5104242;28;19941;-80